Bucksport, Maine
Current Conditions -  °F | °C
As of 8:53 AM on Monday 26 Jan 2015 (Local Time) from KBGR Reporting Station
Scattered Clouds Scattered Clouds  
Wind Chill:   Ceiling: Unl
Heat Index:   Visibility: 10mi
Dew Point: -6°   Wind: 0mph
Humidity: 69%   Direction: NA
Pressure: 30.22"   Gusts: NA
Location:  44.58°N, 68.79°W
Report Text: KBGR 261353Z 00000KT 10SM SCT200 M17/M21 A3022 RMK AO2 SLP239 T11671211
Loading
Personal Weather Stations






























Interactive Weather Map New forecast layout! Learn more

10-Day Weather Forecast

Advertisements
Track Severe Weather on mobile